Time;durP1;ratioP1;P1;durP2;ratioP2;P2;SDS_P1;SDS_P2;PMS_P1;PMS_P2;Temp;Humidity;BMP_temperature;BMP_pressure;BME280_temperature;BME280_humidity;BME280_pressure;Samples;Min_cycle;Max_cycle;Signal;HPM_P1;HPM_P2
2024/03/29 00:01:11;;;;;;;14.48;4.68;;;;;;;10.90;65.53;98994.63;4870912;29;20172;-92
2024/03/29 00:03:36;;;;;;;14.73;5.07;;;;;;;10.74;66.09;99006.56;4871572;29;20092;-94
2024/03/29 00:06:02;;;;;;;20.48;5.95;;;;;;;10.75;66.05;99000.09;4871175;29;20024;-94
2024/03/29 00:08:28;;;;;;;19.08;6.43;;;;;;;10.72;66.39;99015.72;4871302;29;20028;-94
2024/03/29 00:10:53;;;;;;;16.65;6.53;;;;;;;10.62;66.55;99009.59;4871116;29;20055;-94
2024/03/29 00:13:22;;;;;;;14.40;6.32;;;;;;;10.60;66.42;99006.38;4871800;29;20551;-92
2024/03/29 00:15:47;;;;;;;14.10;6.47;;;;;;;10.59;66.37;99005.56;4876831;29;20043;-94
2024/03/29 00:18:13;;;;;;;15.90;7.35;;;;;;;10.61;66.33;99010.69;4901998;29;20044;-93
2024/03/29 00:20:39;;;;;;;16.65;7.03;;;;;;;10.51;66.60;98998.06;4885893;29;20029;-93
2024/03/29 00:23:04;;;;;;;18.38;7.72;;;;;;;10.61;66.43;99014.19;4872030;29;20025;-93
2024/03/29 00:25:30;;;;;;;23.70;8.30;;;;;;;10.76;66.45;99036.72;4889618;29;20043;-94
2024/03/29 00:27:56;;;;;;;18.23;8.02;;;;;;;10.54;66.58;99010.16;4905862;29;20040;-94
2024/03/29 00:30:40;;;;;;;23.35;8.10;;;;;;;10.71;66.79;99041.06;4873958;29;20036;-93
2024/03/29 00:33:05;;;;;;;20.08;8.10;;;;;;;10.70;66.33;99028.66;4905182;29;20539;-95
2024/03/29 00:35:31;;;;;;;21.00;8.40;;;;;;;10.61;66.69;99022.25;4874284;29;20020;-95
2024/03/29 00:37:57;;;;;;;21.98;8.80;;;;;;;10.58;66.35;99016.59;4874760;29;20032;-94
2024/03/29 00:40:22;;;;;;;18.52;8.02;;;;;;;10.58;66.82;99022.78;4875018;29;20509;-94
2024/03/29 00:42:48;;;;;;;27.45;9.25;;;;;;;10.42;67.07;99002.44;4891119;29;20477;-94
2024/03/29 00:45:14;;;;;;;20.67;8.18;;;;;;;10.48;67.12;99023.66;4890732;29;20043;-95
2024/03/29 00:47:40;;;;;;;18.83;8.60;;;;;;;10.40;66.94;99009.97;4890890;29;20410;-94
2024/03/29 00:50:09;;;;;;;26.17;8.02;;;;;;;10.50;67.36;99037.66;4875862;29;20040;-95
2024/03/29 00:52:35;;;;;;;17.10;7.28;;;;;;;10.43;67.54;99039.03;4890563;29;20045;-94
2024/03/29 00:55:00;;;;;;;29.75;7.25;;;;;;;10.19;67.13;99028.88;4873840;29;20115;-94
2024/03/29 00:57:26;;;;;;;15.07;6.55;;;;;;;10.03;67.50;99000.41;4874481;29;20116;-94
2024/03/29 00:59:51;;;;;;;12.15;6.13;;;;;;;10.21;67.41;99037.47;4873577;29;20024;-94
2024/03/29 01:02:17;;;;;;;13.23;6.15;;;;;;;10.13;67.47;99032.66;4889305;29;20148;-94
2024/03/29 01:04:43;;;;;;;17.08;6.30;;;;;;;10.17;67.59;99039.09;4886039;29;20444;-93
2024/03/29 01:07:09;;;;;;;16.73;5.88;;;;;;;9.98;67.75;99020.06;4868290;29;20033;-94
2024/03/29 01:09:34;;;;;;;15.82;6.32;;;;;;;10.06;68.21;99038.28;4897512;29;20037;-93
2024/03/29 01:12:00;;;;;;;12.75;6.03;;;;;;;9.96;67.87;99016.84;4884283;29;20060;-94
2024/03/29 01:14:25;;;;;;;18.55;6.07;;;;;;;9.98;68.18;99028.13;4871612;29;20040;-93
2024/03/29 01:16:52;;;;;;;17.40;6.30;;;;;;;10.08;67.87;99038.81;4886159;29;20068;-93
2024/03/29 01:19:18;;;;;;;17.60;6.03;;;;;;;9.94;68.10;99018.16;4871562;29;20037;-94
2024/03/29 01:21:44;;;;;;;14.88;5.57;;;;;;;10.03;68.08;99038.06;4871346;29;20084;-94
2024/03/29 01:24:09;;;;;;;12.90;6.13;;;;;;;9.99;67.51;99031.59;4869880;29;20151;-95
2024/03/29 01:26:35;;;;;;;18.25;6.10;;;;;;;9.95;68.12;99027.84;4886708;29;20087;-95
2024/03/29 01:29:01;;;;;;;16.23;6.28;;;;;;;10.20;67.84;99064.63;4886072;29;20446;-95
2024/03/29 01:31:26;;;;;;;13.05;5.82;;;;;;;9.92;68.38;99031.91;4885734;29;20036;-95
2024/03/29 01:33:52;;;;;;;12.52;6.22;;;;;;;9.81;68.36;99039.16;4886258;29;20531;-94
2024/03/29 01:36:18;;;;;;;17.38;6.25;;;;;;;9.98;68.19;99065.78;4885944;29;20131;-95
2024/03/29 01:38:48;;;;;;;12.38;5.85;;;;;;;9.93;68.37;99071.16;4885214;29;20064;-96
2024/03/29 01:41:14;;;;;;;15.48;6.43;;;;;;;9.73;68.52;99053.16;4901286;29;20083;-94
2024/03/29 01:43:39;;;;;;;17.40;5.95;;;;;;;9.90;68.08;99063.63;4885710;29;20044;-95
2024/03/29 01:46:07;;;;;;;16.50;5.78;;;;;;;9.79;68.45;99053.97;4901965;29;20096;-95
2024/03/29 01:48:33;;;;;;;18.58;6.32;;;;;;;9.85;68.63;99088.63;4886291;29;20104;-94
2024/03/29 01:50:58;;;;;;;16.77;6.20;;;;;;;9.67;69.18;99081.09;4885651;29;20056;-95
2024/03/29 01:53:24;;;;;;;15.85;6.25;;;;;;;9.61;69.19;99066.09;4885597;29;20571;-94
2024/03/29 01:55:50;;;;;;;22.77;6.70;;;;;;;9.56;69.28;99072.25;4886470;29;20406;-93
2024/03/29 01:58:16;;;;;;;15.93;6.25;;;;;;;9.59;69.15;99076.31;4884321;29;20115;-94
2024/03/29 02:00:50;;;;;;;13.30;5.35;;;;;;;9.61;69.20;99092.97;4885362;29;20025;-94
2024/03/29 02:03:16;;;;;;;15.65;6.30;;;;;;;9.55;69.49;99085.97;4885235;29;20096;-94
2024/03/29 02:05:42;;;;;;;14.02;6.20;;;;;;;9.50;69.13;99086.75;4883685;29;20471;-94
2024/03/29 02:08:08;;;;;;;15.10;6.50;;;;;;;9.47;69.34;99101.53;4885208;29;20039;-93
2024/03/29 02:10:35;;;;;;;21.75;6.00;;;;;;;9.53;69.56;99120.38;4885314;29;20033;-93
2024/03/29 02:13:00;;;;;;;17.85;5.53;;;;;;;9.40;69.86;99110.94;4884710;29;20032;-94
2024/03/29 02:15:28;;;;;;;17.42;6.47;;;;;;;9.35;69.13;99101.00;4884861;29;20039;-94
2024/03/29 02:17:53;;;;;;;14.13;6.25;;;;;;;9.36;69.30;99113.38;4884553;29;20028;-93
2024/03/29 02:20:19;;;;;;;17.92;6.07;;;;;;;9.44;69.28;99117.38;4886020;29;20031;-95
2024/03/29 02:22:55;;;;;;;21.48;6.32;;;;;;;9.36;69.08;99121.44;4884833;29;20048;-94
2024/03/29 02:25:20;;;;;;;15.63;5.97;;;;;;;9.30;69.56;99122.50;4865762;29;20068;-95
2024/03/29 02:27:46;;;;;;;16.10;6.40;;;;;;;9.23;69.60;99138.03;4836735;29;20070;-94
2024/03/29 02:30:16;;;;;;;26.60;7.18;;;;;;;9.00;70.08;99115.16;4835602;29;20056;-94
2024/03/29 02:32:42;;;;;;;18.10;7.30;;;;;;;9.10;70.15;99144.72;4835376;29;20029;-93
2024/03/29 02:35:08;;;;;;;22.02;6.90;;;;;;;9.14;69.75;99139.66;4835319;29;20117;-94
2024/03/29 02:37:35;;;;;;;16.38;6.85;;;;;;;9.27;69.78;99160.63;4835614;29;20048;-95
2024/03/29 02:40:00;;;;;;;21.55;7.97;;;;;;;9.08;70.52;99152.25;4835521;29;20032;-94
2024/03/29 02:42:26;;;;;;;18.67;7.47;;;;;;;9.02;70.25;99150.63;4865944;29;20028;-93
2024/03/29 02:44:52;;;;;;;23.58;8.00;;;;;;;9.07;70.63;99162.19;4865270;29;20172;-94
2024/03/29 02:47:18;;;;;;;25.27;8.32;;;;;;;9.11;70.18;99157.09;4882639;29;20053;-94
2024/03/29 02:49:44;;;;;;;16.23;7.32;;;;;;;9.16;70.06;99146.38;4850273;29;20032;-94
2024/03/29 02:52:09;;;;;;;21.00;7.78;;;;;;;9.41;69.55;99187.81;4838304;29;20025;-93
2024/03/29 02:54:35;;;;;;;11.65;7.00;;;;;;;9.49;69.49;99196.16;4835584;29;20116;-94
2024/03/29 02:57:01;;;;;;;18.02;7.85;;;;;;;9.44;68.96;99187.25;4858722;29;20029;-94
2024/03/29 02:59:26;;;;;;;17.20;6.45;;;;;;;9.47;68.74;99178.69;4866976;29;20078;-94
2024/03/29 03:01:52;;;;;;;13.65;5.00;;;;;;;9.55;68.52;99174.66;4886757;29;20025;-94
2024/03/29 03:04:17;;;;;;;21.02;5.80;;;;;;;9.48;68.83;99161.47;4853800;29;20037;-95
2024/03/29 03:12:31;;;;;;;16.45;7.70;;;;;;;9.30;70.13;99195.03;4863396;29;20097;-94
2024/03/29 03:15:00;;;;;;;20.73;7.55;;;;;;;9.33;69.47;99205.25;4862330;29;20089;-93
2024/03/29 03:17:28;;;;;;;20.98;7.65;;;;;;;9.22;70.00;99198.22;4862426;29;20025;-94
2024/03/29 03:19:55;;;;;;;15.40;6.88;;;;;;;9.19;69.86;99201.44;4881008;29;20104;-94
2024/03/29 03:22:21;;;;;;;16.60;6.85;;;;;;;9.23;69.86;99218.63;4865787;29;20032;-93
2024/03/29 03:24:49;;;;;;;16.40;7.15;;;;;;;9.16;70.19;99215.41;4880527;29;20512;-93
2024/03/29 03:27:14;;;;;;;15.70;6.75;;;;;;;9.08;69.70;99208.66;4852545;29;20053;-92
2024/03/29 03:29:40;;;;;;;15.65;7.00;;;;;;;8.98;70.31;99200.53;4868563;29;20120;-93
2024/03/29 03:32:06;;;;;;;16.63;7.45;;;;;;;8.98;70.24;99211.28;4837696;29;20112;-94
2024/03/29 03:34:32;;;;;;;18.00;6.88;;;;;;;9.07;70.04;99223.16;4852535;29;20032;-93
2024/03/29 03:36:57;;;;;;;16.58;6.68;;;;;;;9.01;70.04;99224.22;4837614;29;20500;-93
2024/03/29 03:39:23;;;;;;;16.60;6.85;;;;;;;8.96;69.93;99224.16;4868211;29;20032;-93
2024/03/29 03:41:50;;;;;;;17.55;6.68;;;;;;;9.02;69.83;99263.41;4876435;29;20059;-94
2024/03/29 03:44:15;;;;;;;15.98;7.32;;;;;;;8.86;70.24;99243.72;4871659;29;20092;-96
2024/03/29 03:46:41;;;;;;;20.52;7.50;;;;;;;8.96;69.37;99245.66;4887207;29;20024;-94
2024/03/29 03:49:07;;;;;;;20.52;6.65;;;;;;;8.96;69.62;99253.72;4883427;29;20061;-92
2024/03/29 03:51:32;;;;;;;17.52;6.25;;;;;;;8.95;69.54;99250.22;4860613;29;20024;-94
2024/03/29 03:53:58;;;;;;;19.13;7.07;;;;;;;9.11;69.54;99269.91;4875271;29;20036;-94
2024/03/29 03:56:23;;;;;;;21.27;6.60;;;;;;;9.07;69.23;99253.50;4882545;29;20110;-94
2024/03/29 03:58:49;;;;;;;18.83;6.55;;;;;;;9.08;69.82;99255.09;4870857;29;20037;-94
2024/03/29 04:01:15;;;;;;;13.57;6.70;;;;;;;9.17;69.28;99274.25;4902543;29;20028;-94
2024/03/29 04:03:40;;;;;;;12.52;6.20;;;;;;;9.18;68.99;99253.56;4903748;29;20492;-94
2024/03/29 04:06:06;;;;;;;16.48;6.60;;;;;;;9.14;68.94;99260.53;4902465;29;20498;-95
2024/03/29 04:08:32;;;;;;;18.70;6.35;;;;;;;8.99;69.18;99264.75;4903094;29;20035;-93
2024/03/29 04:10:58;;;;;;;18.77;7.43;;;;;;;8.95;69.52;99269.00;4918041;29;20033;-93
2024/03/29 04:13:23;;;;;;;20.98;7.40;;;;;;;8.96;70.19;99288.63;4886185;29;20578;-94
2024/03/29 04:15:49;;;;;;;17.85;6.97;;;;;;;8.87;70.23;99293.66;4887345;29;20040;-95
2024/03/29 04:18:15;;;;;;;21.80;7.75;;;;;;;8.93;70.73;99319.50;4902273;29;20088;-94
2024/03/29 04:20:40;;;;;;;24.85;6.90;;;;;;;9.01;70.25;99313.63;4902239;29;20063;-94
2024/03/29 04:23:06;;;;;;;19.02;7.43;;;;;;;9.09;69.69;99312.34;4887906;29;20563;-94
2024/03/29 04:25:32;;;;;;;22.02;7.72;;;;;;;9.24;69.14;99319.66;4889598;29;20028;-94
2024/03/29 04:27:58;;;;;;;13.23;6.15;;;;;;;9.36;69.41;99328.34;4889991;29;20032;-94
2024/03/29 04:30:24;;;;;;;26.63;8.13;;;;;;;9.32;69.36;99332.59;4872322;29;20028;-95
2024/03/29 04:32:50;;;;;;;16.67;7.47;;;;;;;9.20;69.60;99314.00;4891020;29;20026;-94
2024/03/29 04:35:15;;;;;;;18.50;6.97;;;;;;;9.28;69.47;99335.00;4874037;29;20040;-94
2024/03/29 04:37:41;;;;;;;25.75;7.95;;;;;;;9.12;69.46;99333.28;4889432;29;20031;-94
2024/03/29 04:40:07;;;;;;;22.80;7.65;;;;;;;9.14;68.86;99325.00;4873877;29;20115;-96
2024/03/29 04:42:32;;;;;;;22.95;7.38;;;;;;;8.92;69.37;99317.06;4874170;29;20048;-95
2024/03/29 04:44:58;;;;;;;21.92;7.95;;;;;;;9.12;69.45;99352.09;4888843;29;20024;-94
2024/03/29 04:47:24;;;;;;;29.85;8.27;;;;;;;9.02;69.68;99335.91;4890178;29;20039;-95
2024/03/29 04:49:49;;;;;;;32.38;8.65;;;;;;;9.15;69.50;99361.50;4904752;29;20059;-94
2024/03/29 04:52:15;;;;;;;16.95;7.35;;;;;;;9.06;69.48;99350.44;4889068;29;20055;-95
2024/03/29 04:54:41;;;;;;;18.23;8.52;;;;;;;9.10;69.70;99357.72;4873894;29;20119;-94
2024/03/29 04:57:06;;;;;;;24.75;10.63;;;;;;;9.12;69.26;99353.97;4889041;29;20032;-93
2024/03/29 04:59:33;;;;;;;37.22;11.50;;;;;;;9.38;68.92;99381.78;4889464;29;20435;-93
2024/03/29 05:02:01;;;;;;;22.70;10.18;;;;;;;9.39;68.68;99380.75;4888139;29;20040;-92
2024/03/29 05:04:27;;;;;;;24.10;8.43;;;;;;;9.35;69.05;99377.75;4880949;29;20066;-93
2024/03/29 05:06:53;;;;;;;25.27;9.45;;;;;;;9.39;68.50;99378.06;4887242;29;20043;-93
2024/03/29 05:09:20;;;;;;;15.90;8.48;;;;;;;9.38;68.92;99379.09;4874183;29;20021;-92
2024/03/29 05:11:46;;;;;;;21.92;9.85;;;;;;;9.37;68.80;99374.81;4885557;29;20024;-92
2024/03/29 05:14:14;;;;;;;21.17;9.57;;;;;;;9.39;68.89;99370.78;4871851;29;20075;-92
2024/03/29 05:16:41;;;;;;;19.70;9.23;;;;;;;9.57;68.94;99393.75;4879420;29;20111;-92
2024/03/29 05:19:06;;;;;;;25.23;9.45;;;;;;;9.46;69.31;99384.81;4885540;29;20576;-92
2024/03/29 05:21:32;;;;;;;25.55;10.73;;;;;;;9.44;69.14;99383.44;4888711;29;20024;-92
2024/03/29 05:23:58;;;;;;;25.02;10.32;;;;;;;9.43;68.95;99385.31;4884601;29;20057;-95
2024/03/29 05:26:24;;;;;;;26.25;10.82;;;;;;;9.49;68.98;99386.97;4890577;29;20028;-91
2024/03/29 05:28:50;;;;;;;30.85;14.80;;;;;;;9.57;68.53;99403.69;4885695;29;20035;-94
2024/03/29 05:31:15;;;;;;;32.65;11.30;;;;;;;9.68;67.94;99405.34;4887085;29;20039;-92
2024/03/29 05:33:41;;;;;;;33.42;11.52;;;;;;;9.81;67.53;99393.31;4886909;29;20032;-94
2024/03/29 05:36:57;;;;;;;29.73;11.50;;;;;;;10.08;67.53;99414.66;4886882;29;20035;-93
2024/03/29 05:39:23;;;;;;;20.02;9.70;;;;;;;10.13;67.11;99382.41;4892954;29;20124;-91
2024/03/29 05:41:48;;;;;;;25.95;10.65;;;;;;;10.31;66.26;99387.31;4888287;29;20038;-94
2024/03/29 05:44:27;;;;;;;20.63;9.80;;;;;;;10.45;66.13;99381.41;4886897;29;20526;-93
2024/03/29 05:46:52;;;;;;;32.70;10.48;;;;;;;10.72;65.95;99403.50;4878864;29;20104;-93
2024/03/29 05:49:18;;;;;;;29.02;10.85;;;;;;;11.07;65.67;99428.03;4876971;29;20040;-93
2024/03/29 05:51:44;;;;;;;30.38;10.35;;;;;;;11.15;64.24;99402.44;4880106;29;20132;-95
2024/03/29 05:54:09;;;;;;;20.27;7.68;;;;;;;11.46;62.43;99432.84;4868472;29;20032;-95
2024/03/29 05:56:38;;;;;;;23.38;8.63;;;;;;;11.47;62.01;99415.56;4879135;29;20032;-94
2024/03/29 05:59:05;;;;;;;16.30;6.63;;;;;;;11.66;61.19;99418.47;4896012;29;20024;-94
2024/03/29 06:01:31;;;;;;;22.23;6.93;;;;;;;11.87;60.15;99424.59;4899961;29;20123;-95
2024/03/29 06:04:03;;;;;;;30.23;11.25;;;;;;;11.86;59.73;99415.72;4870962;29;20032;-94
2024/03/29 06:06:28;;;;;;;25.05;8.35;;;;;;;12.03;60.47;99420.00;4875502;29;20035;-94
2024/03/29 06:11:43;;;;;;;34.15;13.35;;;;;;;12.07;61.78;99424.56;4904971;29;20039;-96
2024/03/29 06:19:21;;;;;;;30.25;11.70;;;;;;;12.61;59.92;99436.41;4903903;29;20040;-95
2024/03/29 06:21:47;;;;;;;33.63;12.63;;;;;;;12.58;59.90;99434.28;4886553;29;20499;-95
2024/03/29 06:24:18;;;;;;;35.00;11.48;;;;;;;12.79;59.56;99436.84;4885695;29;20515;-94
2024/03/29 06:26:43;;;;;;;24.17;9.85;;;;;;;12.90;58.46;99433.78;4871406;29;20127;-95
2024/03/29 06:29:11;;;;;;;22.65;9.50;;;;;;;12.96;57.13;99422.94;4871095;29;20123;-93
2024/03/29 06:31:40;;;;;;;25.83;9.93;;;;;;;13.04;56.70;99430.44;4871927;29;20411;-94
2024/03/29 06:34:07;;;;;;;23.67;9.18;;;;;;;13.08;56.22;99437.69;4872838;29;20033;-95
2024/03/29 06:36:35;;;;;;;18.02;8.05;;;;;;;13.19;56.24;99440.31;4870426;29;20024;-94
2024/03/29 06:39:01;;;;;;;20.23;8.52;;;;;;;13.18;55.66;99435.97;4873206;29;20044;-95
2024/03/29 06:41:27;;;;;;;38.53;11.00;;;;;;;13.36;55.69;99448.03;4875013;29;20028;-96
2024/03/29 06:43:55;;;;;;;21.20;9.07;;;;;;;13.45;55.40;99454.44;4870191;29;20474;-94
2024/03/29 06:46:20;;;;;;;28.63;8.82;;;;;;;13.58;54.77;99455.69;4870658;29;20033;-93
2024/03/29 06:48:46;;;;;;;24.65;9.63;;;;;;;13.72;54.48;99446.59;4872470;29;20056;-95
2024/03/29 06:51:12;;;;;;;25.38;8.50;;;;;;;13.93;53.90;99451.78;4869253;29;20115;-94
2024/03/29 06:53:40;;;;;;;31.52;7.53;;;;;;;14.04;53.37;99447.84;4891133;29;20046;-93
2024/03/29 06:56:11;;;;;;;32.63;9.75;;;;;;;14.24;52.93;99451.41;4880323;29;20096;-93
2024/03/29 06:58:37;;;;;;;22.83;7.60;;;;;;;14.43;52.02;99457.63;4908233;29;20025;-95
2024/03/29 07:07:40;;;;;;;18.70;7.57;;;;;;;15.11;50.11;99475.38;4901602;29;20503;-95
2024/03/29 07:10:09;;;;;;;14.40;3.88;;;;;;;15.19;47.60;99459.50;4876107;29;20045;-92
2024/03/29 07:16:04;;;;;;;24.88;7.20;;;;;;;15.55;47.05;99457.00;4882967;29;20103;-92
2024/03/29 07:18:29;;;;;;;22.10;7.32;;;;;;;15.77;47.28;99469.91;4887817;29;20547;-94
2024/03/29 07:21:24;;;;;;;14.98;5.75;;;;;;;15.95;46.33;99469.00;4902740;29;20036;-91
2024/03/29 07:23:59;;;;;;;21.27;3.75;;;;;;;16.29;43.51;99492.25;4873430;29;20053;-93
2024/03/29 07:26:48;;;;;;;13.73;6.38;;;;;;;16.32;43.81;99461.75;4869867;29;20048;-95
2024/03/29 07:39:36;;;;;;;11.82;5.25;;;;;;;17.23;43.45;99476.28;4886909;29;20091;-91
2024/03/29 07:42:09;;;;;;;15.38;4.80;;;;;;;17.31;42.28;99458.41;4861582;29;20057;-95
2024/03/29 07:44:35;;;;;;;13.40;3.75;;;;;;;17.48;42.56;99466.66;4875623;29;20041;-95
2024/03/29 07:47:08;;;;;;;15.10;4.72;;;;;;;17.65;42.88;99476.84;4857478;29;20041;-93
2024/03/29 07:52:47;;;;;;;18.50;5.53;;;;;;;18.07;42.29;99477.34;4896629;29;20041;-94
2024/03/29 07:55:23;;;;;;;16.38;4.75;;;;;;;18.12;41.14;99457.34;4898293;29;20033;-95
2024/03/29 08:05:35;;;;;;;27.20;5.68;;;;;;;18.98;39.37;99472.22;4922094;29;20061;-93
2024/03/29 08:08:22;;;;;;;13.20;4.28;;;;;;;19.19;39.66;99469.63;4904874;29;20024;-92
2024/03/29 08:10:47;;;;;;;19.23;4.75;;;;;;;19.27;38.26;99449.69;4895519;29;20036;-91
2024/03/29 08:13:15;;;;;;;13.48;4.13;;;;;;;19.52;37.35;99458.16;4887072;29;20062;-90
2024/03/29 08:16:04;;;;;;;9.65;1.50;;;;;;;19.87;35.22;99469.00;4899311;29;20162;-91
2024/03/29 08:18:36;;;;;;;4.78;1.33;;;;;;;20.10;34.31;99466.78;4899515;29;20104;-93
2024/03/29 08:21:11;;;;;;;10.45;1.05;;;;;;;20.33;33.53;99467.28;4913388;29;20491;-89
2024/03/29 08:23:38;;;;;;;3.47;1.20;;;;;;;20.54;33.17;99473.59;4892864;29;20104;-89
2024/03/29 08:26:04;;;;;;;7.80;1.10;;;;;;;20.67;32.88;99469.03;4887269;29;20035;-90
2024/03/29 08:28:30;;;;;;;9.45;1.13;;;;;;;20.62;32.09;99439.13;4883355;29;20066;-90
2024/03/29 08:31:12;;;;;;;5.78;1.20;;;;;;;20.82;31.83;99450.41;4885811;29;20028;-89
2024/03/29 08:33:41;;;;;;;;;;;;;;;21.07;32.04;99482.22;4894539;29;20056;-90
2024/03/29 08:36:18;;;;;;;6.18;1.50;;;;;;;20.87;32.43;99448.25;4899565;29;20008;-91
2024/03/29 08:39:26;;;;;;;4.70;1.15;;;;;;;20.99;31.75;99447.50;4892940;29;20032;-95
2024/03/29 08:45:40;;;;;;;;;;;;;;;;;;;;;
2024/03/29 08:48:28;;;;;;;3.72;1.20;;;;;;;21.27;31.23;99455.13;4903889;29;20133;-95
2024/03/29 08:50:53;;;;;;;4.15;1.02;;;;;;;21.37;31.32;99458.25;4931275;29;20063;-93
2024/03/29 08:53:26;;;;;;;5.93;1.27;;;;;;;21.40;31.12;99446.59;4911096;29;20043;-93
2024/03/29 08:58:41;;;;;;;5.32;1.10;;;;;;;21.58;29.51;99452.72;4932446;29;20078;-94
2024/03/29 09:01:15;;;;;;;4.65;1.00;;;;;;;21.63;28.70;99450.91;4911990;29;20066;-94
2024/03/29 09:03:54;;;;;;;4.53;1.45;;;;;;;21.66;29.38;99439.25;4903721;29;20163;-92
2024/03/29 09:06:19;;;;;;;4.13;0.85;;;;;;;21.61;29.11;99429.31;4907134;29;20047;-93
2024/03/29 09:09:53;;;;;;;2.40;0.90;;;;;;;21.64;27.82;99422.34;4894054;29;20027;-96
2024/03/29 09:12:19;;;;;;;2.97;0.77;;;;;;;21.82;27.68;99428.44;4871348;29;20142;-92
2024/03/29 09:14:50;;;;;;;3.70;0.90;;;;;;;21.95;28.42;99444.50;4890182;29;20040;-93
2024/03/29 09:17:26;;;;;;;;;;;;;;;;;;;;;
2024/03/29 09:20:03;;;;;;;;;;;;;;;;;;;;;
2024/03/29 09:23:25;;;;;;;;;;;;;;;;;;;;;
2024/03/29 09:31:48;;;;;;;4.88;1.08;;;;;;;22.27;26.89;99433.78;4920659;28;20399;-94
2024/03/29 09:34:20;;;;;;;3.58;1.00;;;;;;;22.39;26.70;99442.00;4875838;29;20039;-94
2024/03/29 09:36:48;;;;;;;8.57;1.10;;;;;;;22.50;27.70;99436.03;4925323;29;20048;-94
2024/03/29 09:39:14;;;;;;;4.30;0.90;;;;;;;22.44;27.17;99443.69;4871079;29;20036;-95
2024/03/29 09:45:10;;;;;;;20.05;2.60;;;;;;;22.57;27.57;99425.25;4883505;29;20096;-93
2024/03/29 09:47:37;;;;;;;7.25;1.40;;;;;;;22.62;27.81;99424.22;4853231;29;20096;-94
2024/03/29 09:50:06;;;;;;;2.45;0.80;;;;;;;22.54;27.68;99410.28;4878590;29;20036;-94
2024/03/29 09:52:45;;;;;;;;;;;;;;;;;;;;;
2024/03/29 09:55:14;;;;;;;6.75;1.10;;;;;;;22.52;27.29;99417.28;4906245;29;20111;-93
2024/03/29 09:57:40;;;;;;;6.13;1.00;;;;;;;22.56;27.33;99443.69;4857785;29;20068;-91
2024/03/29 10:00:12;;;;;;;14.65;1.48;;;;;;;22.49;27.11;99412.47;4878783;29;20569;-92
2024/03/29 10:02:47;;;;;;;5.57;0.93;;;;;;;22.43;27.09;99402.88;4888041;29;20032;-93
2024/03/29 10:05:21;;;;;;;14.70;2.28;;;;;;;22.61;27.57;99428.91;4919021;29;20032;-92
2024/03/29 10:07:50;;;;;;;11.27;1.50;;;;;;;22.52;27.11;99411.78;4889532;29;20091;-92
2024/03/29 10:10:40;;;;;;;5.85;0.98;;;;;;;22.53;27.18;99422.41;4888032;29;20096;-92
2024/03/29 10:13:09;;;;;;;11.52;3.80;;;;;;;22.53;27.46;99407.88;4904516;29;20060;-94
2024/03/29 10:15:55;;;;;;;3.42;1.00;;;;;;;22.52;27.21;99404.34;4891246;29;20059;-93
2024/03/29 10:18:33;;;;;;;8.15;1.30;;;;;;;22.56;27.95;99421.72;4913854;29;20031;-93
2024/03/29 10:21:01;;;;;;;3.35;0.98;;;;;;;22.60;27.46;99414.41;4891875;29;20059;-95
2024/03/29 10:23:28;;;;;;;3.25;0.90;;;;;;;22.53;27.04;99407.88;4887722;29;20070;-95
2024/03/29 10:25:55;;;;;;;4.78;1.20;;;;;;;22.73;27.39;99415.16;4874140;29;20118;-92
2024/03/29 10:28:23;;;;;;;3.88;1.00;;;;;;;22.66;26.86;99409.47;4890384;29;20043;-93
2024/03/29 10:30:58;;;;;;;8.57;3.15;;;;;;;22.79;27.00;99419.25;4889084;29;20055;-91
2024/03/29 10:33:28;;;;;;;6.22;1.58;;;;;;;22.74;26.70;99416.75;4876148;29;20130;-91
2024/03/29 10:36:08;;;;;;;;;;;;;;;;;;;;;
2024/03/29 10:38:40;;;;;;;6.47;1.00;;;;;;;22.83;26.63;99388.31;4889196;29;20056;-90
2024/03/29 10:41:06;;;;;;;8.55;1.10;;;;;;;23.01;26.88;99411.63;4906666;29;20474;-91
2024/03/29 10:43:45;;;;;;;2.67;1.00;;;;;;;22.98;25.87;99398.56;4893864;29;20055;-90
2024/03/29 10:46:11;;;;;;;2.78;0.90;;;;;;;22.91;26.60;99395.63;4907411;29;20036;-92
2024/03/29 10:48:58;;;;;;;4.15;0.98;;;;;;;22.94;26.13;99384.72;4892075;29;20471;-92
2024/03/29 10:51:26;;;;;;;3.63;1.02;;;;;;;22.92;26.59;99388.97;4919744;29;20071;-90
2024/03/29 10:53:55;;;;;;;2.03;0.63;;;;;;;22.87;26.45;99381.81;4890690;29;20035;-90
2024/03/29 11:03:08;;;;;;;2.38;0.90;;;;;;;23.14;25.93;99410.41;4922155;29;20050;-93
2024/03/29 11:05:47;;;;;;;5.18;0.93;;;;;;;22.89;25.94;99373.19;4922399;29;20032;-93
2024/03/29 11:08:32;;;;;;;4.25;0.90;;;;;;;22.85;25.95;99383.28;4873888;29;20112;-92
2024/03/29 11:11:04;;;;;;;4.55;0.95;;;;;;;22.93;25.30;99385.06;4885507;29;20037;-95
2024/03/29 11:13:35;;;;;;;5.72;0.98;;;;;;;22.99;26.31;99397.41;4898705;29;20054;-95
2024/03/29 11:16:11;;;;;;;5.70;0.88;;;;;;;22.84;26.44;99370.72;4903895;29;20032;-92
2024/03/29 11:19:05;;;;;;;8.40;2.63;;;;;;;22.85;27.08;99366.81;4888860;29;20039;-92
2024/03/29 11:21:45;;;;;;;6.07;0.95;;;;;;;22.98;26.75;99387.59;4888956;29;20024;-91
2024/03/29 11:24:36;;;;;;;3.10;1.05;;;;;;;23.11;26.32;99405.59;4873275;29;20573;-91
2024/03/29 11:27:15;;;;;;;2.05;0.93;;;;;;;22.87;26.54;99379.06;4908600;29;20494;-91
2024/03/29 11:30:07;;;;;;;5.55;0.82;;;;;;;23.02;26.52;99391.25;4922442;29;20040;-90
2024/03/29 11:32:45;;;;;;;;;;;;;;;23.03;26.90;99397.53;4912430;29;20055;-92
2024/03/29 11:35:17;;;;;;;7.78;1.30;;;;;;;22.86;26.65;99358.22;4865938;29;19912;-96
2024/03/29 11:38:00;;;;;;;3.38;0.88;;;;;;;22.92;26.79;99370.56;4855149;29;20050;-92
2024/03/29 11:43:28;;;;;;;5.03;1.00;;;;;;;22.97;26.50;99373.06;4860318;29;20049;-92
2024/03/29 11:46:07;;;;;;;4.65;1.05;;;;;;;22.95;27.38;99360.81;4905227;29;20064;-91
2024/03/29 11:48:38;;;;;;;3.17;0.80;;;;;;;22.78;26.76;99372.91;4901911;29;20028;-95
2024/03/29 11:51:14;;;;;;;5.90;1.17;;;;;;;23.04;26.90;99397.19;4887228;29;20478;-94
2024/03/29 11:53:41;;;;;;;4.10;1.20;;;;;;;23.03;27.09;99370.88;4879340;29;20040;-95
2024/03/29 11:56:11;;;;;;;3.25;0.80;;;;;;;23.05;27.29;99367.78;4880698;29;20281;-93
2024/03/29 11:58:37;;;;;;;2.38;0.80;;;;;;;22.96;27.11;99368.69;4890786;29;20041;-92
2024/03/29 12:01:06;;;;;;;2.78;0.85;;;;;;;22.97;26.95;99375.81;4886432;29;20484;-93
2024/03/29 12:03:32;;;;;;;4.53;0.98;;;;;;;22.97;26.78;99361.25;4886531;29;20393;-94
2024/03/29 12:06:01;;;;;;;3.45;0.95;;;;;;;23.15;26.83;99370.00;4868656;29;20531;-92
2024/03/29 12:08:29;;;;;;;2.22;0.88;;;;;;;23.15;26.59;99372.75;4915377;29;20047;-91
2024/03/29 12:10:55;;;;;;;4.57;1.33;;;;;;;23.26;27.00;99367.53;4878258;29;20045;-91
2024/03/29 12:13:26;;;;;;;3.88;1.00;;;;;;;23.26;26.44;99368.31;4895455;29;20103;-92
2024/03/29 12:15:52;;;;;;;4.60;0.90;;;;;;;23.29;27.11;99369.56;4902003;29;20491;-92
2024/03/29 12:18:25;;;;;;;10.05;1.90;;;;;;;23.36;26.50;99369.75;4880532;29;20296;-94
2024/03/29 12:20:52;;;;;;;4.25;1.33;;;;;;;23.37;27.13;99368.59;4892175;29;20047;-95
2024/03/29 12:23:23;;;;;;;4.45;0.82;;;;;;;23.42;27.15;99373.03;4903190;29;20070;-91
2024/03/29 12:26:30;;;;;;;5.87;1.10;;;;;;;23.53;27.39;99382.31;4872634;29;20025;-92
2024/03/29 12:28:56;;;;;;;6.20;0.80;;;;;;;23.30;27.36;99369.19;4906958;29;20142;-93
2024/03/29 12:31:30;;;;;;;33.38;18.20;;;;;;;23.27;27.46;99353.44;4886743;29;20435;-92
2024/03/29 12:33:58;;;;;;;11.82;8.25;;;;;;;23.29;27.58;99353.09;4901711;29;20119;-93
2024/03/29 12:36:26;;;;;;;5.70;1.98;;;;;;;23.28;27.82;99340.50;4890461;29;20032;-95
2024/03/29 12:38:57;;;;;;;3.28;1.20;;;;;;;23.39;27.99;99347.06;4885501;29;20593;-91
2024/03/29 12:41:26;;;;;;;2.70;1.20;;;;;;;23.49;27.91;99357.53;4890305;29;20140;-95
2024/03/29 12:43:52;;;;;;;3.60;0.93;;;;;;;23.53;27.63;99363.91;4889102;29;20069;-93
2024/03/29 12:46:53;;;;;;;;;;;;;;;;;;;;;
2024/03/29 12:49:30;;;;;;;8.75;1.33;;;;;;;23.51;27.85;99357.16;4908444;29;20059;-92
2024/03/29 12:51:58;;;;;;;4.03;1.00;;;;;;;23.46;27.39;99349.97;4890825;29;20088;-92
2024/03/29 12:54:33;;;;;;;2.33;0.77;;;;;;;23.43;26.93;99328.72;4889217;29;20036;-94
2024/03/29 12:57:04;;;;;;;2.83;1.00;;;;;;;23.43;27.85;99316.91;4887639;29;20032;-92
2024/03/29 12:59:52;;;;;;;;;;;;;;;23.52;27.29;99342.28;4881099;29;20041;-95
2024/03/29 13:09:38;;;;;;;7.53;1.30;;;;;;;23.22;28.07;99323.47;4790806;29;20070;-93